createdAt,value
2022-12-01T00:04:42.933Z,8.6
2022-12-01T00:09:42.012Z,9.8
2022-12-01T00:14:41.040Z,9.8
2022-12-01T00:19:40.101Z,9.5
2022-12-01T00:24:39.157Z,8
2022-12-01T00:29:38.272Z,8.5
2022-12-01T00:34:37.287Z,9.3
2022-12-01T00:39:36.329Z,9
2022-12-01T00:44:35.367Z,9.1
2022-12-01T00:49:34.409Z,7.6
2022-12-01T00:54:33.506Z,7.9
2022-12-01T00:59:32.629Z,6
2022-12-01T01:04:31.652Z,7.5
2022-12-01T01:09:30.738Z,8.1
2022-12-01T01:14:29.791Z,8.6
2022-12-01T01:19:28.884Z,6.8
2022-12-01T01:24:27.879Z,7.3
2022-12-01T01:29:27.000Z,3.8
2022-12-01T01:34:26.021Z,5.6
2022-12-01T01:39:25.088Z,6.2
2022-12-01T01:44:24.169Z,8.2
2022-12-01T01:49:23.222Z,7.5
2022-12-01T01:54:22.260Z,7.5
2022-12-01T01:59:21.300Z,9.1
2022-12-01T02:04:20.486Z,6.2
2022-12-01T02:09:19.471Z,8.3
2022-12-01T02:14:18.556Z,7.5
2022-12-01T02:19:17.692Z,7.7
2022-12-01T02:24:16.762Z,8.2
2022-12-01T02:29:15.812Z,8.5
2022-12-01T02:34:14.895Z,7.7
2022-12-01T02:39:14.020Z,6.8
2022-12-01T02:44:13.030Z,6.7
2022-12-01T02:49:12.105Z,7.8
2022-12-01T02:54:11.180Z,5.3
2022-12-01T02:59:10.262Z,8.1
2022-12-01T03:04:09.332Z,6.5
2022-12-01T03:09:08.392Z,8
2022-12-01T03:14:07.448Z,7.2
2022-12-01T03:19:06.578Z,6.5
2022-12-01T03:24:05.592Z,8.4
2022-12-01T03:29:04.706Z,7.8
2022-12-01T03:34:03.761Z,8.3
2022-12-01T03:39:02.812Z,8.3
2022-12-01T03:44:01.939Z,4.9
2022-12-01T03:49:00.930Z,6.8
2022-12-01T03:54:00.009Z,14
2022-12-01T03:58:59.062Z,4.2
2022-12-01T04:03:58.196Z,8.1
2022-12-01T04:08:57.247Z,4.5
2022-12-01T04:13:56.271Z,9.2
2022-12-01T04:18:55.352Z,7.3
2022-12-01T04:23:54.415Z,7.6
2022-12-01T04:28:53.432Z,5.7
2022-12-01T04:33:52.469Z,3.5
2022-12-01T04:38:51.520Z,5.8
2022-12-01T04:43:50.544Z,5.9
2022-12-01T04:48:49.593Z,3.5
2022-12-01T04:53:48.602Z,14.8
2022-12-01T04:58:47.652Z,4.9
2022-12-01T05:03:46.663Z,4.7
2022-12-01T05:08:45.764Z,3.7
2022-12-01T05:13:44.758Z,6.7
2022-12-01T05:18:43.813Z,3.1
2022-12-01T05:23:42.766Z,9.5
2022-12-01T05:28:41.848Z,6
2022-12-01T05:33:40.829Z,5.1
2022-12-01T05:38:39.829Z,4
2022-12-01T05:43:38.807Z,5.2
2022-12-01T05:48:37.837Z,6.4
2022-12-01T05:53:36.866Z,6.1
2022-12-01T05:58:35.858Z,5
2022-12-01T06:03:34.880Z,4
2022-12-01T06:08:33.908Z,5.2
2022-12-01T06:13:32.937Z,4.5
2022-12-01T06:18:31.933Z,4.8
2022-12-01T06:23:31.010Z,5.7
2022-12-01T06:28:30.000Z,8.9
2022-12-01T06:33:29.026Z,5.1
2022-12-01T06:38:28.090Z,8.2
2022-12-01T06:43:27.115Z,6.2
2022-12-01T06:48:26.146Z,7.9
2022-12-01T06:53:25.233Z,27.3
2022-12-01T06:58:24.279Z,7
2022-12-01T07:03:23.333Z,10.3
2022-12-01T07:08:22.379Z,6.8
2022-12-01T07:13:21.420Z,6.1
2022-12-01T07:18:20.496Z,8.7
2022-12-01T07:23:19.457Z,5.5
2022-12-01T07:28:18.532Z,6.7
2022-12-01T07:33:17.582Z,7.8
2022-12-01T07:38:21.797Z,4.5
2022-12-01T07:43:15.714Z,6.2
2022-12-01T07:48:14.796Z,4.7
2022-12-01T07:53:13.902Z,5.4
2022-12-01T07:58:12.928Z,4.8
2022-12-01T08:03:12.046Z,7
2022-12-01T08:08:11.209Z,4
2022-12-01T08:13:14.195Z,4.5
2022-12-01T08:18:09.281Z,7
2022-12-01T08:23:08.419Z,6.7
2022-12-01T08:28:07.474Z,8.3
2022-12-01T08:33:06.537Z,9.7
2022-12-01T08:38:05.642Z,11.8
2022-12-01T08:43:04.767Z,10.3
2022-12-01T08:48:03.857Z,7.6
2022-12-01T08:53:02.937Z,8.8
2022-12-01T08:58:02.035Z,6.6
2022-12-01T09:03:01.217Z,4.6
2022-12-01T09:08:00.366Z,7.7
2022-12-01T09:12:59.331Z,6.9
2022-12-01T09:17:58.489Z,9.1
2022-12-01T09:18:17.213Z,9.1
2022-12-01T09:22:57.566Z,7.6
2022-12-01T09:27:56.693Z,8
2022-12-01T09:32:55.772Z,8.6
2022-12-01T09:37:54.938Z,3.2
2022-12-01T09:42:54.053Z,6.3
2022-12-01T09:47:53.198Z,8.2
2022-12-01T09:52:52.336Z,6.9
2022-12-01T09:57:51.426Z,6.2
2022-12-01T10:00:09.950Z,6.2
2022-12-01T10:02:50.598Z,2.4
2022-12-01T10:07:49.789Z,4.6
2022-12-01T10:12:48.802Z,8.5
2022-12-01T10:17:47.943Z,5.6
2022-12-01T10:22:47.094Z,5.5
2022-12-01T10:27:46.296Z,6.5
2022-12-01T10:32:45.389Z,7.4
2022-12-01T10:37:44.638Z,5.5
2022-12-01T10:42:43.748Z,3.2
2022-12-01T10:47:43.924Z,6.2
2022-12-01T10:52:19.546Z,6.2
2022-12-01T10:52:42.007Z,4.6
2022-12-01T10:57:41.183Z,3.5
2022-12-01T11:02:40.461Z,2.5
2022-12-01T11:04:32.692Z,2.5
2022-12-01T11:07:39.500Z,2.9
2022-12-01T11:12:38.916Z,3.3
2022-12-01T11:17:37.809Z,3.4
2022-12-01T11:22:36.953Z,4
2022-12-01T11:27:36.094Z,4
2022-12-01T11:32:35.251Z,3.6
2022-12-01T11:37:34.422Z,4
2022-12-01T11:42:33.584Z,2.7
2022-12-01T11:47:32.779Z,4.3
2022-12-01T11:52:31.928Z,3.6
2022-12-01T11:57:34.642Z,4.7
2022-12-01T12:02:30.312Z,5.1
2022-12-01T12:07:29.508Z,4.2
2022-12-01T12:12:28.634Z,3.9
2022-12-01T12:17:27.874Z,6.3
2022-12-01T12:22:26.939Z,2.6
2022-12-01T12:27:26.105Z,5.2
2022-12-01T12:32:25.229Z,4.6
2022-12-01T12:37:24.381Z,8.4
2022-12-01T12:42:23.532Z,23.2
2022-12-01T12:47:22.643Z,11.7
2022-12-01T12:52:21.769Z,5.6
2022-12-01T12:57:20.978Z,11.1
2022-12-01T13:02:20.100Z,5.2
2022-12-01T13:07:19.200Z,9.1
2022-12-01T13:12:18.362Z,9.9
2022-12-01T13:17:17.484Z,4.6
2022-12-01T13:22:16.681Z,7.1
2022-12-01T13:27:15.825Z,6.5
2022-12-01T13:32:14.976Z,32.1
2022-12-01T13:37:14.133Z,25.9
2022-12-01T13:42:13.209Z,14.6
2022-12-01T13:47:12.330Z,16.8
2022-12-01T13:52:11.473Z,10.8
2022-12-01T13:57:10.607Z,11.2
2022-12-01T14:02:09.800Z,13.5
2022-12-01T14:07:08.919Z,11.5
2022-12-01T14:10:49.087Z,11.5
2022-12-01T14:12:08.034Z,19.6
2022-12-01T14:17:07.200Z,15.5
2022-12-01T14:22:06.358Z,13.5
2022-12-01T14:22:21.560Z,13.5
2022-12-01T14:26:02.411Z,13.5
2022-12-01T14:27:05.554Z,11.7
2022-12-01T14:32:04.628Z,10.6
2022-12-01T14:34:54.204Z,10.6
2022-12-01T14:35:19.755Z,10.6
2022-12-01T14:36:43.812Z,10.6
2022-12-01T14:37:03.759Z,13
2022-12-01T14:39:05.171Z,13
2022-12-01T14:42:02.906Z,13.7
2022-12-01T14:42:45.794Z,13.7
2022-12-01T14:45:54.425Z,13.7
2022-12-01T14:46:20.486Z,13.7
2022-12-01T14:47:02.160Z,16
2022-12-01T14:48:15.599Z,16
2022-12-01T14:51:16.665Z,16
2022-12-01T14:52:01.159Z,14.9
2022-12-01T14:53:16.984Z,14.9
2022-12-01T14:55:03.493Z,14.9
2022-12-01T14:56:55.524Z,14.9
2022-12-01T14:57:05.580Z,14.8
2022-12-01T14:57:22.511Z,14.8
2022-12-01T14:57:49.098Z,14.8
2022-12-01T14:59:49.492Z,14.8
2022-12-01T15:01:19.265Z,14.8
2022-12-01T15:01:59.445Z,17.3
2022-12-01T15:02:47.319Z,17.3
2022-12-01T15:03:13.199Z,17.3
2022-12-01T15:06:58.536Z,22.4
2022-12-01T15:11:11.837Z,22.4
2022-12-01T15:11:57.617Z,19.1
2022-12-01T15:16:43.157Z,19.1
2022-12-01T15:16:56.798Z,18.1
2022-12-01T15:18:43.494Z,18.1
2022-12-01T15:19:11.084Z,18.1
2022-12-01T15:21:55.925Z,20.1
2022-12-01T15:24:44.784Z,20.1
2022-12-01T15:26:59.141Z,20.7
2022-12-01T15:27:52.762Z,20.7
2022-12-01T15:29:52.695Z,20.7
2022-12-01T15:30:21.721Z,20.7
2022-12-01T15:31:13.863Z,20.7
2022-12-01T15:31:54.164Z,20.3
2022-12-01T15:33:15.119Z,20.3
2022-12-01T15:36:53.209Z,24.4
2022-12-01T15:41:52.268Z,23.6
2022-12-01T15:42:55.814Z,23.6
2022-12-01T15:43:24.936Z,23.6
2022-12-01T15:44:16.486Z,23.6
2022-12-01T15:44:46.024Z,23.6
2022-12-01T15:45:55.677Z,23.6
2022-12-01T15:46:25.274Z,23.6
2022-12-01T15:46:51.406Z,21.6
2022-12-01T15:50:06.486Z,21.6
2022-12-01T15:51:50.520Z,25.2
2022-12-01T15:52:41.029Z,25.2
2022-12-01T15:54:41.489Z,25.2
2022-12-01T15:55:09.585Z,25.2
2022-12-01T15:56:49.583Z,25.6
2022-12-01T15:59:12.486Z,25.6
2022-12-01T16:00:22.697Z,25.6
2022-12-01T16:01:49.255Z,25.3
2022-12-01T16:02:52.228Z,25.3
2022-12-01T16:06:47.762Z,45.6
2022-12-01T16:07:12.723Z,45.6
2022-12-01T16:08:37.287Z,45.6
2022-12-01T16:10:04.726Z,45.6
2022-12-01T16:11:46.841Z,25.6
2022-12-01T16:13:11.705Z,25.6
2022-12-01T16:16:45.994Z,22
2022-12-01T16:19:16.120Z,22
2022-12-01T16:20:25.499Z,22
2022-12-01T16:20:55.149Z,22
2022-12-01T16:21:45.005Z,20.8
2022-12-01T16:24:48.301Z,20.8
2022-12-01T16:26:17.699Z,20.8
2022-12-01T16:26:44.700Z,22.2
2022-12-01T16:27:56.094Z,22.2
2022-12-01T16:30:18.769Z,22.2
2022-12-01T16:32:12.548Z,36
2022-12-01T16:32:49.748Z,36
2022-12-01T16:33:19.470Z,36
2022-12-01T16:35:06.233Z,36
2022-12-01T16:36:42.262Z,22.1
2022-12-01T16:41:41.388Z,19.9
2022-12-01T16:46:17.927Z,19.9
2022-12-01T16:46:40.456Z,17.8
2022-12-01T16:50:20.534Z,17.8
2022-12-01T16:50:45.845Z,17.8
2022-12-01T16:51:54.747Z,25
2022-12-01T16:52:45.537Z,25
2022-12-01T16:56:38.524Z,27.9
2022-12-01T17:01:37.714Z,27.4
2022-12-01T17:06:36.699Z,33.9
2022-12-01T17:09:25.511Z,33.9
2022-12-01T17:09:50.790Z,33.9
2022-12-01T17:11:35.746Z,32.6
2022-12-01T17:16:34.952Z,32
2022-12-01T17:21:33.943Z,32.2
2022-12-01T17:26:33.939Z,27.5
2022-12-01T17:30:21.141Z,27.5
2022-12-01T17:30:51.228Z,27.5
2022-12-01T17:31:19.518Z,27.5
2022-12-01T17:31:32.107Z,26.9
2022-12-01T17:36:31.053Z,26.6
2022-12-01T17:41:30.124Z,26.1
2022-12-01T17:46:29.295Z,32
2022-12-01T17:51:13.139Z,32
2022-12-01T17:51:28.312Z,36
2022-12-01T17:56:27.407Z,35.2
2022-12-01T18:00:52.331Z,35.2
2022-12-01T18:01:30.149Z,36.6
2022-12-01T18:06:25.383Z,39.7
2022-12-01T18:08:17.565Z,39.7
2022-12-01T18:10:01.964Z,39.7
2022-12-01T18:11:24.462Z,41.1
2022-12-01T18:16:23.557Z,37.8
2022-12-01T18:21:22.535Z,35.7
2022-12-01T18:26:21.575Z,37.3
2022-12-01T18:31:20.707Z,40.6
2022-12-01T18:36:19.630Z,44.4
2022-12-01T18:41:18.688Z,42.7
2022-12-01T18:46:17.766Z,36.7
2022-12-01T18:51:16.739Z,36.7
2022-12-01T18:56:15.780Z,36.7
2022-12-01T19:01:14.933Z,41.6
2022-12-01T19:06:13.889Z,34.1
2022-12-01T19:11:12.859Z,31.7
2022-12-01T19:16:11.957Z,31.1
2022-12-01T19:21:10.895Z,34.2
2022-12-01T19:26:09.935Z,33.1
2022-12-01T19:31:09.008Z,32.4
2022-12-01T19:36:07.988Z,35.4
2022-12-01T19:41:07.011Z,36
2022-12-01T19:46:06.129Z,39
2022-12-01T19:51:05.129Z,36.6
2022-12-01T19:56:04.161Z,41.5
2022-12-01T20:01:03.234Z,33.7
2022-12-01T20:06:02.337Z,33.5
2022-12-01T20:11:01.371Z,39.4
2022-12-01T20:16:00.522Z,34.9
2022-12-01T20:20:59.498Z,30.2
2022-12-01T20:25:58.600Z,32.6
2022-12-01T20:30:57.630Z,27.4
2022-12-01T20:35:56.729Z,25.4
2022-12-01T20:40:58.054Z,23.2
2022-12-01T20:45:55.161Z,23.9
2022-12-01T20:50:54.479Z,19.1
2022-12-01T20:55:52.986Z,24.9
2022-12-01T21:00:52.141Z,26.8
2022-12-01T21:05:51.228Z,23.7
2022-12-01T21:10:50.229Z,18.7
2022-12-01T21:15:49.305Z,18
2022-12-01T21:20:48.420Z,14.6
2022-12-01T21:25:47.503Z,21.7
2022-12-01T21:30:46.692Z,25.1
2022-12-01T21:35:45.735Z,17.2
2022-12-01T21:40:44.815Z,16.4
2022-12-01T21:45:44.013Z,17.1
2022-12-01T21:50:42.963Z,16.8
2022-12-01T21:55:42.078Z,18.3
2022-12-01T22:00:41.153Z,18.6
2022-12-01T22:05:40.198Z,18.6
2022-12-01T22:10:39.353Z,17.6
2022-12-01T22:15:38.495Z,19.8
2022-12-01T22:20:37.501Z,20.4
2022-12-01T22:25:36.594Z,21.8
2022-12-01T22:30:35.869Z,21.7
2022-12-01T22:35:34.789Z,18.9
2022-12-01T22:40:33.934Z,19.8
2022-12-01T22:45:32.987Z,19.8
2022-12-01T22:50:32.064Z,19.3
2022-12-01T22:55:31.119Z,18.2
2022-12-01T23:00:30.236Z,23.2
2022-12-01T23:05:29.326Z,21.9
2022-12-01T23:10:28.416Z,20.2
2022-12-01T23:15:27.530Z,19.8
2022-12-01T23:20:26.544Z,20.3
2022-12-01T23:25:25.696Z,15.7
2022-12-01T23:30:24.785Z,17.3
2022-12-01T23:35:23.887Z,16.9
2022-12-01T23:40:22.951Z,16.1
2022-12-01T23:45:22.067Z,16.2
2022-12-01T23:50:21.139Z,15.4
2022-12-01T23:55:20.209Z,15.3
